Detalii statie UNIVERSITATEA AGRICOLA IASI [0000198B]

Toti senzorii

Date Temperatura solului [C]Precipitatii [mm]Voltaj baterie [mV]HC Air temperature [C]HC Relative humidity [%]Punctul de roua [C]
medieminmaxsumaultimamedieminmaxmediemediemin
2019-02-21 01:00:00 2.3 2.2 2.4 0 6874 3 2.23 4.01 100 2.9 2.2
2019-02-21 02:00:00 2.2 2.2 2.4 0 6864 3.39 2.86 4.09 100 3.3 2.8
2019-02-21 03:00:00 2.1 2.1 2.3 0 6864 2.49 1.4 3.03 100 2.4 1.4
2019-02-21 04:00:00 2.1 2 2.2 0 6854 3.5 1.98 4.44 100 3.4 1.9
2019-02-21 05:00:00 2 1.9 2.1 0 6864 4.68 4.08 5.26 98.52 4.4 4
2019-02-21 06:00:00 2.1 2 2.2 0 6844 4.9 4.67 5.07 96.66 4.3 4.2
2019-02-21 07:00:00 2 2 2.2 0 6854 4.94 4.64 5.14 95.35 4.1 3.9
2019-02-21 08:00:00 2 2 2.1 0 7040 4.98 4.88 5.13 94.9 4.1 4
2019-02-21 09:00:00 2 2 2.2 0 7324 5.75 4.95 6.77 92.98 4.6 4.3
2019-02-21 10:00:00 2.2 2.1 2.4 0 7236 7.17 6.61 7.54 87.15 5 4.8
2019-02-21 11:00:00 2.5 2.3 2.9 0 7324 8.12 7.53 8.93 81.5 4.9 4.6
2019-02-21 12:00:00 2.7 2.5 2.9 0 7264 8.98 8.36 9.53 74.38 4.5 3.9
2019-02-21 13:00:00 2.9 2.7 3.1 0.2 7314 9.15 8.87 9.59 67.18 3.2 2.7
2019-02-21 14:00:00 3.1 3 3.3 0 7206 9.49 9.29 9.82 65.24 3.1 2.6
2019-02-21 15:00:00 3.1 3 3.4 0 7314 9.29 9.19 9.41 67.47 3.4 3.2
2019-02-21 16:00:00 3.3 3.2 3.5 0 7196 9.65 9.51 9.81 66.69 3.6 3.1
2019-02-21 17:00:00 3.4 3.3 3.5 0 7158 9.39 8.89 9.68 67.51 3.5 3.2
2019-02-21 18:00:00 3.3 3.2 3.5 0 6992 8.06 7.75 8.65 71.13 2.9 2.8
2019-02-21 19:00:00 3.2 3.1 3.4 0 6972 7.43 7.2 7.75 73.4 2.8 2.6
2019-02-21 20:00:00 3.2 3.1 3.4 0 6922 7.22 6.61 7.48 77.16 3.3 3.3
2019-02-21 21:00:00 3.2 3.1 3.3 0 6914 7.02 6.53 7.47 78.25 3.3 3.1
2019-02-21 22:00:00 3.2 3.1 3.3 0 6914 6.45 5.97 7.13 83 3.6 3.4
2019-02-21 23:00:00 3.1 3.1 3.3 0 6894 6.65 6.49 6.98 81.65 3.6 3.5
2019-02-22 00:00:00 3.1 3.1 3.3 0 6874 6.71 6.38 6.99 79.83 3.3 3.2
2019-02-22 01:00:00 3.1 3.1 3.3 0 6874 6.54 5.84 7.13 82.33 3.6 3.2
2019-02-22 02:00:00 3.1 3 3.3 0 6864 6.02 5.8 6.28 88.82 4.1 3.9
2019-02-22 03:00:00 3.1 3.1 3.3 0.4 6874 5.71 5.22 6.22 98.77 5.4 4.9
2019-02-22 04:00:00 3.1 3.1 3.3 0.6 6864 4.66 4.31 5.23 100 4.6 4.3
2019-02-22 05:00:00 3.1 3.1 3.3 0.6 6864 4.13 3.89 4.35 100 4 3.8
2019-02-22 06:00:00 3 2.9 3.3 0.8 6854 3.65 3.53 3.86 100 3.6 3.5
2019-02-22 07:00:00 3 2.9 3.3 0.6 6854 3.61 3.46 4.03 100 3.5 3.4
2019-02-22 08:00:00 3 3 3.3 1 6844 3.82 3.73 4.01 100 3.7 3.7
2019-02-22 09:00:00 3.1 3.1 3.3 1 6894 4.02 3.76 4.25 100 3.9 3.7
2019-02-22 10:00:00 3.2 3.1 3.3 1.4 6962 4.02 3.75 4.19 100 3.9 3.7
2019-02-22 11:00:00 3.1 2.9 3.4 0.4 7138 1.24 0.03 3.47 100 1.1 0
2019-02-22 12:00:00 2.7 2.6 3 0 7206 -0.58 -1.02 -0.18 100 -0.4 -0.9
2019-02-22 13:00:00 2.4 2.2 2.7 0 7332 -1.41 -1.76 -1.02 100 -1.2 -1.6
2019-02-22 14:00:00 2 1.8 2.2 0.2 7294 -2.11 -2.45 -1.4 100 -1.9 -2.3
2019-02-22 15:00:00 1.7 1.5 1.9 0 7332 -2.72 -2.89 -2.53 100 -2.5 -2.7
2019-02-22 16:00:00 1.5 1.3 1.6 0 7264 -2.8 -3.31 -2.42 99.95 -2.6 -3.2
2019-02-22 17:00:00 1.3 1.1 1.4 0 7148 -2.16 -2.29 -2.05 85.22 -4.2 -5.1
2019-02-22 18:00:00 1.1 0.9 1.3 0 7030 -2.68 -2.86 -2.29 76.95 -6 -6.4
2019-02-22 19:00:00 0.9 0.8 1.1 0 7000 -2.85 -3.03 -2.6 73.78 -6.8 -7.1
2019-02-22 20:00:00 0.7 0.7 0.9 0 6952 -3.39 -3.65 -3.16 74.59 -7.2 -8.1
2019-02-22 21:00:00 0.6 0.6 0.8 0 6942 -3.71 -4.04 -3.55 79.85 -6.5 -6.9
2019-02-22 22:00:00 0.5 0.5 0.7 0 6922 -4.47 -4.67 -4.11 87.54 -6.1 -6.9
2019-02-22 23:00:00 0.5 0.4 0.7 0 6922 -4.63 -4.93 -4.37 84.03 -6.8 -7
2019-02-23 00:00:00 0.3 0.3 0.5 0 6894 -5.43 -5.81 -4.95 84.4 -7.6 -8.3